createdAt,value
2022-10-16T03:18:10.597Z,17.48
2022-10-16T03:20:38.899Z,17.85
2022-10-16T03:23:09.178Z,17.70
2022-10-16T03:25:37.545Z,17.10
2022-10-16T03:28:06.235Z,17.55
2022-10-16T03:30:34.431Z,16.95
2022-10-16T03:33:02.693Z,16.73
2022-10-16T03:35:32.313Z,18.33
2022-10-16T03:38:00.497Z,17.15
2022-10-16T03:40:28.822Z,17.20
2022-10-16T03:42:58.416Z,17.30
2022-10-16T03:45:29.722Z,16.35
2022-10-16T03:47:58.090Z,16.95
2022-10-16T03:50:26.440Z,18.15
2022-10-16T03:52:56.291Z,16.50
2022-10-16T03:55:24.839Z,17.23
2022-10-16T03:57:53.191Z,16.83
2022-10-16T04:00:21.420Z,16.10
2022-10-16T04:02:49.757Z,15.10
2022-10-16T04:05:17.997Z,16.10
2022-10-16T04:07:46.264Z,15.73
2022-10-16T04:10:16.052Z,15.52
2022-10-16T04:12:44.272Z,16.05
2022-10-16T04:15:12.767Z,15.88
2022-10-16T04:17:40.975Z,15.70
2022-10-16T04:20:10.188Z,16.25
2022-10-16T04:22:38.504Z,15.73
2022-10-16T04:25:07.323Z,15.13
2022-10-16T04:27:37.394Z,15.55
2022-10-16T04:30:07.218Z,15.75
2022-10-16T04:32:35.540Z,15.77
2022-10-16T04:35:04.039Z,15.75
2022-10-16T04:37:32.335Z,15.02
2022-10-16T04:40:00.482Z,15.45
2022-10-16T04:42:28.730Z,15.38
2022-10-16T04:44:58.482Z,15.98
2022-10-16T04:47:27.017Z,14.82
2022-10-16T04:49:55.415Z,15.70
2022-10-16T04:52:25.657Z,16.00
2022-10-16T04:54:55.031Z,15.80
2022-10-16T04:57:23.434Z,15.25
2022-10-16T04:59:51.821Z,16.70
2022-10-16T05:02:21.565Z,16.42
2022-10-16T05:04:49.909Z,15.82
2022-10-16T05:07:18.122Z,17.50
2022-10-16T05:09:46.435Z,15.57
2022-10-16T05:12:14.709Z,17.45
2022-10-16T05:14:42.974Z,16.85
2022-10-16T05:17:11.353Z,17.00
2022-10-16T05:19:41.306Z,15.77
2022-10-16T05:22:09.686Z,16.98
2022-10-16T05:24:37.981Z,16.48
2022-10-16T05:27:06.219Z,15.90
2022-10-16T05:29:34.439Z,15.90
2022-10-16T05:32:02.682Z,15.88
2022-10-16T05:34:30.883Z,16.38
2022-10-16T05:37:00.858Z,14.48
2022-10-16T05:39:29.069Z,15.38
2022-10-16T05:41:57.247Z,14.50
2022-10-16T05:44:25.635Z,14.23
2022-10-16T05:46:53.824Z,14.07
2022-10-16T05:49:22.139Z,15.23
2022-10-16T05:51:50.316Z,13.98
2022-10-16T05:54:20.003Z,13.73
2022-10-16T05:56:48.236Z,14.40
2022-10-16T05:59:16.636Z,14.20
2022-10-16T06:01:44.943Z,13.95
2022-10-16T06:04:13.169Z,14.77
2022-10-16T06:06:41.510Z,14.13
2022-10-16T06:09:09.711Z,13.98
2022-10-16T06:11:39.415Z,14.65
2022-10-16T06:14:08.640Z,13.75
2022-10-16T06:16:37.764Z,13.40
2022-10-16T06:19:07.405Z,13.63
2022-10-16T06:21:35.982Z,13.98
2022-10-16T06:24:04.350Z,13.68
2022-10-16T06:26:33.631Z,13.75
2022-10-16T06:29:03.573Z,13.05
2022-10-16T06:31:34.602Z,13.77
2022-10-16T06:34:04.389Z,13.90
2022-10-16T06:36:32.648Z,13.23
2022-10-16T06:39:00.928Z,12.30
2022-10-16T06:41:29.369Z,11.45
2022-10-16T06:43:59.010Z,11.85
2022-10-16T06:46:29.449Z,9.82
2022-10-16T06:48:57.753Z,10.00
2022-10-16T06:51:26.925Z,9.70
2022-10-16T06:54:05.037Z,10.18
2022-10-16T06:56:34.628Z,10.18
2022-10-16T06:59:03.415Z,9.93
2022-10-16T07:01:34.027Z,10.70
2022-10-16T07:04:03.411Z,10.45
2022-10-16T07:06:35.337Z,10.10
2022-10-16T07:09:06.597Z,10.07
2022-10-16T07:11:35.794Z,10.50
2022-10-16T07:14:04.484Z,10.32
2022-10-16T07:16:35.189Z,9.82
2022-10-16T07:19:04.827Z,10.23
2022-10-16T07:21:36.684Z,10.18
2022-10-16T07:24:07.298Z,9.15
2022-10-16T07:26:40.115Z,10.30
2022-10-16T07:29:11.169Z,10.73
2022-10-16T07:31:41.324Z,10.48
2022-10-16T07:34:10.093Z,10.30
2022-10-16T07:39:11.170Z,11.02
2022-10-16T07:41:39.560Z,11.43
2022-10-16T07:44:07.990Z,10.70
2022-10-16T07:46:37.280Z,11.32
2022-10-16T07:49:07.047Z,10.40
2022-10-16T07:51:35.517Z,10.88
2022-10-16T07:54:03.870Z,10.95
2022-10-16T07:56:33.739Z,11.20
2022-10-16T07:59:02.011Z,10.57
2022-10-16T08:01:30.399Z,10.75
2022-10-16T08:03:58.679Z,10.88
2022-10-16T08:06:28.591Z,10.57
2022-10-16T08:08:57.619Z,10.57
2022-10-16T08:11:26.147Z,10.38
2022-10-16T08:13:54.558Z,10.25
2022-10-16T08:16:23.526Z,10.70
2022-10-16T08:18:52.815Z,10.15
2022-10-16T08:21:22.681Z,9.95
2022-10-16T08:23:57.011Z,10.50
2022-10-16T08:26:28.540Z,9.93
2022-10-16T08:28:57.793Z,10.05
2022-10-16T08:31:27.336Z,10.52
2022-10-16T08:33:56.029Z,10.73
2022-10-16T08:36:24.293Z,10.18
2022-10-16T08:38:55.646Z,9.75
2022-10-16T08:41:48.290Z,9.70
2022-10-16T08:44:32.972Z,8.95
2022-10-16T08:47:10.291Z,10.10
2022-10-16T08:49:40.005Z,10.48
2022-10-16T08:52:14.865Z,9.80
2022-10-16T08:54:48.729Z,9.57
2022-10-16T08:57:24.420Z,10.00
2022-10-16T08:59:53.414Z,10.02
2022-10-16T09:02:29.411Z,9.38
2022-10-16T09:05:25.193Z,9.32
2022-10-16T09:08:05.675Z,9.18
2022-10-16T09:10:46.226Z,8.32
2022-10-16T09:13:22.739Z,8.75
2022-10-16T09:15:57.271Z,9.55
2022-10-16T09:18:32.882Z,9.52
2022-10-16T09:21:08.027Z,9.05
2022-10-16T09:23:38.818Z,9.77
2022-10-16T09:26:13.758Z,9.10
2022-10-16T09:28:42.383Z,9.55
2022-10-16T09:31:18.740Z,9.63
2022-10-16T09:33:52.469Z,9.02
2022-10-16T09:36:22.637Z,9.05
2022-10-16T09:39:04.267Z,9.27
2022-10-16T09:41:38.125Z,9.07
2022-10-16T09:44:09.040Z,9.00
2022-10-16T09:46:38.890Z,8.82
2022-10-16T09:49:21.204Z,8.15
2022-10-16T09:51:50.071Z,9.18
2022-10-16T09:54:20.640Z,8.38
2022-10-16T09:56:53.024Z,9.07
2022-10-16T09:59:24.852Z,8.63
2022-10-16T10:01:54.951Z,8.65
2022-10-16T10:04:26.733Z,8.52
2022-10-16T10:06:57.027Z,8.95
2022-10-16T10:09:27.273Z,8.98
2022-10-16T10:11:59.019Z,9.35
2022-10-16T10:14:31.968Z,8.60
2022-10-16T10:17:19.572Z,8.65
2022-10-16T10:19:52.336Z,8.23
2022-10-16T10:22:31.048Z,8.85
2022-10-16T10:25:17.398Z,8.65
2022-10-16T10:28:02.044Z,8.20
2022-10-16T10:30:38.536Z,8.07
2022-10-16T10:33:21.073Z,8.63
2022-10-16T10:35:58.513Z,8.20
2022-10-16T10:38:40.462Z,8.85
2022-10-16T10:41:31.415Z,8.57
2022-10-16T10:44:10.309Z,7.70
2022-10-16T10:46:45.728Z,8.48
2022-10-16T10:49:30.162Z,8.40
2022-10-16T10:52:07.646Z,7.65
2022-10-16T10:54:43.649Z,9.05
2022-10-16T10:57:21.365Z,8.80
2022-10-16T11:00:04.341Z,8.13
2022-10-16T11:02:38.716Z,8.43
2022-10-16T11:05:39.491Z,8.20
2022-10-16T11:08:13.071Z,8.10
2022-10-16T11:10:49.642Z,8.55
2022-10-16T11:13:30.680Z,8.05
2022-10-16T11:16:04.101Z,8.15
2022-10-16T11:18:41.341Z,7.95
2022-10-16T11:21:12.506Z,8.10
2022-10-16T11:23:45.319Z,7.85
2022-10-16T11:26:19.583Z,8.25
2022-10-16T11:28:51.576Z,8.43
2022-10-16T11:31:27.003Z,7.50
2022-10-16T11:36:38.717Z,7.20
2022-10-16T11:39:17.472Z,8.18
2022-10-16T11:41:51.269Z,7.60
2022-10-16T11:44:34.601Z,7.68
2022-10-16T11:50:22.259Z,7.47
2022-10-16T11:52:55.913Z,8.05
2022-10-16T11:55:31.628Z,7.50
2022-10-16T11:58:05.337Z,7.20
2022-10-16T12:00:40.777Z,7.88
2022-10-16T12:03:20.086Z,7.57
2022-10-16T12:06:08.606Z,8.02
2022-10-16T12:08:37.541Z,7.47
2022-10-16T12:11:10.584Z,7.20
2022-10-16T12:13:41.674Z,7.32
2022-10-16T12:16:23.915Z,7.60
2022-10-16T12:19:13.269Z,6.13
2022-10-16T12:21:42.263Z,6.20
2022-10-16T12:24:28.960Z,6.10
2022-10-16T12:26:57.432Z,6.45
2022-10-16T12:29:33.948Z,6.97
2022-10-16T12:32:03.069Z,7.13
2022-10-16T12:34:40.012Z,6.78
2022-10-16T12:37:20.985Z,6.97
2022-10-16T12:39:50.796Z,7.60
2022-10-16T12:42:34.475Z,7.22
2022-10-16T12:45:04.533Z,6.28
2022-10-16T12:47:49.225Z,7.03
2022-10-16T12:50:32.833Z,6.68
2022-10-16T12:53:01.698Z,7.25
2022-10-16T12:55:36.721Z,6.60
2022-10-16T12:58:24.941Z,7.40
2022-10-16T13:00:59.320Z,6.55
2022-10-16T13:03:54.004Z,7.10
2022-10-16T13:06:46.638Z,7.03
2022-10-16T13:09:35.898Z,6.95
2022-10-16T13:12:25.748Z,7.20
2022-10-16T13:15:18.632Z,7.20
2022-10-16T13:17:56.048Z,7.22
2022-10-16T13:20:31.679Z,7.80
2022-10-16T13:23:11.032Z,7.38
2022-10-16T13:25:53.461Z,7.40
2022-10-16T13:28:24.184Z,7.60
2022-10-16T13:30:55.446Z,7.22
2022-10-16T13:33:32.612Z,7.25
2022-10-16T13:36:01.550Z,6.72
2022-10-16T13:38:33.797Z,7.57
2022-10-16T13:41:04.503Z,7.18
2022-10-16T13:43:38.227Z,7.88
2022-10-16T13:46:09.318Z,7.70
2022-10-16T13:48:37.687Z,7.30
2022-10-16T13:51:09.019Z,7.78
2022-10-16T13:53:39.096Z,6.82
2022-10-16T13:56:09.351Z,7.20
2022-10-16T13:58:37.867Z,8.15
2022-10-16T14:01:07.855Z,8.90
2022-10-16T14:03:37.744Z,8.25
2022-10-16T14:06:10.079Z,7.68
2022-10-16T14:08:43.592Z,7.70
2022-10-16T14:11:24.609Z,8.02
2022-10-16T14:13:54.021Z,8.00
2022-10-16T14:16:25.499Z,7.28
2022-10-16T14:19:00.252Z,8.05
2022-10-16T14:21:29.495Z,6.93
2022-10-16T14:23:59.174Z,7.28
2022-10-16T14:26:29.982Z,7.57
2022-10-16T14:29:13.614Z,7.65
2022-10-16T14:31:42.631Z,7.38
2022-10-16T14:34:32.876Z,7.50
2022-10-16T14:37:05.757Z,7.22
2022-10-16T14:39:36.382Z,7.63
2022-10-16T14:42:04.894Z,6.93
2022-10-16T14:44:35.371Z,7.60
2022-10-16T14:47:15.208Z,8.23
2022-10-16T14:49:44.387Z,7.75
2022-10-16T14:52:14.193Z,7.53
2022-10-16T14:54:43.926Z,7.70
2022-10-16T14:57:20.127Z,7.95
2022-10-16T14:59:52.226Z,8.10
2022-10-16T15:02:33.998Z,7.78
2022-10-16T15:05:13.566Z,8.07
2022-10-16T15:07:42.024Z,8.88
2022-10-16T15:10:12.151Z,8.45
2022-10-16T15:12:40.573Z,8.23
2022-10-16T15:15:34.367Z,7.80
2022-10-16T15:18:03.824Z,8.05
2022-10-16T15:20:34.966Z,8.02
2022-10-16T15:23:04.554Z,8.10
2022-10-16T15:25:46.666Z,7.75
2022-10-16T15:28:16.687Z,6.97
2022-10-16T15:30:46.449Z,8.23
2022-10-16T15:33:17.140Z,7.97
2022-10-16T15:35:48.238Z,9.13
2022-10-16T15:38:17.328Z,9.05
2022-10-16T15:40:48.462Z,9.18
2022-10-16T15:43:17.077Z,9.82
2022-10-16T15:45:45.416Z,9.40
2022-10-16T15:48:14.713Z,8.95
2022-10-16T15:53:13.092Z,9.73
2022-10-16T15:55:41.466Z,9.27
2022-10-16T15:58:11.581Z,9.82
2022-10-16T16:00:39.921Z,9.50
2022-10-16T16:03:08.435Z,9.98
2022-10-16T16:05:44.119Z,10.20
2022-10-16T16:08:14.963Z,9.82
2022-10-16T16:10:43.282Z,9.57
2022-10-16T16:13:13.232Z,10.15
2022-10-16T16:15:42.376Z,8.55
2022-10-16T16:18:11.118Z,9.15
2022-10-16T16:20:39.596Z,8.60
2022-10-16T16:23:08.215Z,8.68
2022-10-16T16:25:37.857Z,8.68
2022-10-16T16:28:08.318Z,9.15
2022-10-16T16:30:38.099Z,9.75
2022-10-16T16:33:06.494Z,9.65
2022-10-16T16:35:34.975Z,9.50
2022-10-16T16:38:03.239Z,9.68
2022-10-16T16:40:31.891Z,9.90
2022-10-16T16:43:00.154Z,8.90
2022-10-16T16:47:58.853Z,9.60
2022-10-16T16:50:27.243Z,10.32
2022-10-16T16:52:55.927Z,10.55
2022-10-16T16:55:24.279Z,10.20
2022-10-16T16:57:52.660Z,10.02
2022-10-16T17:00:21.123Z,9.32
2022-10-16T17:02:51.406Z,10.05
2022-10-16T17:05:21.382Z,8.95
2022-10-16T17:07:49.760Z,10.20
2022-10-16T17:10:18.233Z,9.30
2022-10-16T17:12:46.612Z,10.40
2022-10-16T17:15:14.959Z,10.23
2022-10-16T17:17:43.602Z,10.80
2022-10-16T17:20:12.427Z,10.98
2022-10-16T17:22:42.203Z,11.15
2022-10-16T17:25:11.064Z,10.88
2022-10-16T17:27:39.726Z,10.73
2022-10-16T17:30:10.318Z,11.32
2022-10-16T17:32:39.025Z,11.60
2022-10-16T17:35:08.800Z,11.32
2022-10-16T17:37:37.224Z,11.13
2022-10-16T17:40:08.147Z,12.10
2022-10-16T17:42:36.869Z,11.73
2022-10-16T17:45:05.608Z,11.30
2022-10-16T17:47:34.124Z,11.68
2022-10-16T17:50:02.535Z,11.90
2022-10-16T17:52:30.936Z,12.50
2022-10-16T17:54:59.332Z,11.40
2022-10-16T17:57:29.183Z,12.10
2022-10-16T17:59:57.550Z,11.65
2022-10-16T18:02:26.649Z,11.50
2022-10-16T18:04:55.794Z,11.70
2022-10-16T18:07:24.172Z,11.70
2022-10-16T18:10:11.906Z,13.23
2022-10-16T18:12:42.100Z,12.77
2022-10-16T18:15:11.191Z,12.65
2022-10-16T18:17:39.503Z,14.02
2022-10-16T18:20:09.267Z,13.65
2022-10-16T18:22:38.202Z,14.00
2022-10-16T18:25:07.743Z,13.43
2022-10-16T18:27:36.322Z,16.65
2022-10-16T18:30:07.264Z,16.05
2022-10-16T18:32:35.951Z,14.70
2022-10-16T18:35:04.373Z,17.42
2022-10-16T18:37:32.706Z,18.63
2022-10-16T18:40:01.007Z,16.05
2022-10-16T18:42:29.416Z,17.17
2022-10-16T18:44:57.880Z,18.05
2022-10-16T18:47:27.795Z,17.55
2022-10-16T18:49:56.372Z,17.77
2022-10-16T18:52:26.929Z,16.33
2022-10-16T18:54:58.336Z,16.27
2022-10-16T18:57:30.512Z,17.85
2022-10-16T18:59:59.068Z,18.23
2022-10-16T19:02:28.812Z,17.45
2022-10-16T19:04:57.134Z,17.08
2022-10-16T19:07:25.839Z,17.60
2022-10-16T19:09:54.856Z,18.27
2022-10-16T19:12:23.239Z,18.42
2022-10-16T19:14:51.570Z,19.90
2022-10-16T19:17:19.989Z,18.83
2022-10-16T19:19:49.739Z,21.85
2022-10-16T19:22:28.355Z,24.65
2022-10-16T19:24:57.090Z,24.65
2022-10-16T19:27:25.499Z,22.15
2022-10-16T19:29:53.816Z,21.10
2022-10-16T19:32:22.181Z,19.35
2022-10-16T19:34:52.791Z,18.60
2022-10-16T19:37:25.900Z,19.08
2022-10-16T19:39:54.277Z,18.40
2022-10-16T19:42:22.529Z,19.92
2022-10-16T19:44:51.426Z,20.55
2022-10-16T19:47:22.286Z,20.33
2022-10-16T19:49:53.559Z,19.10
2022-10-16T19:52:23.309Z,19.23
2022-10-16T19:54:51.808Z,21.02
2022-10-16T19:57:23.791Z,21.02
2022-10-16T19:59:53.522Z,19.45
2022-10-16T20:02:22.146Z,18.20
2022-10-16T20:04:50.432Z,19.90
2022-10-16T20:07:21.167Z,19.77
2022-10-16T20:09:49.598Z,19.63
2022-10-16T20:12:18.322Z,20.63
2022-10-16T20:14:46.812Z,20.20
2022-10-16T20:17:15.167Z,19.83
2022-10-16T20:19:43.462Z,19.17
2022-10-16T20:22:11.833Z,19.50
2022-10-16T20:24:41.905Z,19.48
2022-10-16T20:27:10.341Z,20.25
2022-10-16T20:29:38.854Z,19.95
2022-10-16T20:32:07.357Z,19.02
2022-10-16T20:34:35.970Z,19.27
2022-10-16T20:37:04.342Z,20.35
2022-10-16T20:39:32.837Z,21.60
2022-10-16T20:42:02.548Z,21.33
2022-10-16T20:44:30.959Z,22.55
2022-10-16T20:46:59.220Z,24.00
2022-10-16T20:49:40.290Z,22.23
2022-10-16T20:52:09.209Z,22.52
2022-10-16T20:54:37.515Z,22.58
2022-10-16T20:57:07.195Z,21.08
2022-10-16T20:59:35.678Z,21.33
2022-10-16T21:02:05.611Z,20.60
2022-10-16T21:04:37.594Z,19.48
2022-10-16T21:07:09.335Z,21.58
2022-10-16T21:09:38.095Z,20.10
2022-10-16T21:12:09.982Z,20.35
2022-10-16T21:14:42.277Z,20.40
2022-10-16T21:17:14.746Z,19.17
2022-10-16T21:19:43.171Z,19.92
2022-10-16T21:22:11.620Z,20.95
2022-10-16T21:24:40.065Z,20.83
2022-10-16T21:27:09.924Z,20.17
2022-10-16T21:29:38.330Z,20.48
2022-10-16T21:32:06.585Z,19.13
2022-10-16T21:34:36.214Z,20.27
2022-10-16T21:37:04.578Z,20.48
2022-10-16T21:39:33.068Z,19.88
2022-10-16T21:42:01.454Z,21.17
2022-10-16T21:44:31.173Z,20.48
2022-10-16T21:46:59.525Z,20.58
2022-10-16T21:49:27.841Z,20.80
2022-10-16T21:51:56.075Z,21.83
2022-10-16T21:54:25.237Z,21.52
2022-10-16T21:56:53.662Z,21.20
2022-10-16T21:59:22.182Z,21.52
2022-10-16T22:01:54.808Z,21.10
2022-10-16T22:04:23.300Z,20.08
2022-10-16T22:06:51.989Z,20.02
2022-10-16T22:09:20.277Z,20.85
